Time;durP1;ratioP1;P1;durP2;ratioP2;P2;SDS_P1;SDS_P2;PMS_P1;PMS_P2;Temp;Humidity;BMP_temperature;BMP_pressure;BME280_temperature;BME280_humidity;BME280_pressure;Samples;Min_cycle;Max_cycle;Signal;HPM_P1;HPM_P2
2024/03/15 00:00:47;;;;;;;12.38;8.25;;;;;;;-148.53;100.00;63986.66;5018974;28;20136;-83
2024/03/15 00:03:13;;;;;;;11.02;7.00;;;;;;;-148.53;100.00;63986.66;5030308;28;20060;-83
2024/03/15 00:05:39;;;;;;;10.98;7.75;;;10.20;99.90;;;-148.53;100.00;63986.66;5028870;28;20141;-82
2024/03/15 00:08:05;;;;;;;10.82;7.22;;;11.40;99.90;;;-148.53;100.00;63986.66;5029391;28;20041;-83
2024/03/15 00:10:30;;;;;;;10.00;7.28;;;11.40;99.90;;;-148.53;100.00;63986.66;5041696;28;20041;-84
2024/03/15 00:12:56;;;;;;;10.68;7.53;;;11.40;99.90;;;-148.53;100.00;63986.66;5017090;28;20026;-83
2024/03/15 00:15:22;;;;;;;11.25;7.75;;;11.40;99.90;;;-148.53;100.00;63986.66;5013174;28;20486;-83
2024/03/15 00:17:48;;;;;;;10.85;7.25;;;11.20;99.90;;;-148.53;100.00;63986.66;5030529;28;20037;-83
2024/03/15 00:20:13;;;;;;;9.65;7.35;;;11.10;99.90;;;-148.53;100.00;63986.66;5026627;28;20489;-83
2024/03/15 00:22:39;;;;;;;10.63;7.80;;;10.90;99.90;;;-148.53;100.00;63986.66;5025064;28;20485;-83
2024/03/15 00:25:07;;;;;;;9.95;7.47;;;10.80;99.90;;;-148.53;100.00;63986.66;5020980;28;20048;-81
2024/03/15 00:27:32;;;;;;;11.95;7.57;;;10.70;99.90;;;-148.53;100.00;63986.66;5028384;28;20040;-82
2024/03/15 00:29:58;;;;;;;12.10;7.68;;;10.50;99.90;;;-148.53;100.00;63986.66;5025646;28;20037;-82
2024/03/15 00:32:25;;;;;;;12.48;8.07;;;10.40;99.90;;;-148.53;100.00;63986.66;5018909;28;20045;-82
2024/03/15 00:34:51;;;;;;;11.13;7.85;;;10.40;99.90;;;-148.53;100.00;63986.66;5025455;28;20132;-81
2024/03/15 00:37:17;;;;;;;11.65;7.68;;;10.40;99.90;;;-148.53;100.00;63986.66;5021332;28;20046;-82
2024/03/15 00:39:44;;;;;;;10.90;8.57;;;10.30;99.90;;;-148.53;100.00;63986.66;5009638;28;20037;-82
2024/03/15 00:42:09;;;;;;;11.90;8.00;;;10.30;99.90;;;-148.53;100.00;63986.66;5016448;28;20124;-82
2024/03/15 00:44:35;;;;;;;11.50;8.15;;;10.40;99.90;;;-148.53;100.00;63986.66;5018358;28;20107;-82
2024/03/15 00:47:02;;;;;;;13.57;8.30;;;10.40;99.90;;;-148.53;100.00;63986.66;5019416;28;20033;-82
2024/03/15 00:49:28;;;;;;;13.38;8.73;;;10.40;99.90;;;-148.53;100.00;63986.66;5020367;28;20044;-82
2024/03/15 00:51:53;;;;;;;11.77;8.23;;;10.40;99.90;;;-148.53;100.00;63986.66;5025040;28;20049;-82
2024/03/15 00:54:19;;;;;;;11.88;8.05;;;10.50;99.90;;;-148.53;100.00;63986.66;5016046;28;20046;-82
2024/03/15 00:56:46;;;;;;;12.50;8.68;;;10.60;99.90;;;-148.53;100.00;63986.66;5039786;28;20030;-82
2024/03/15 00:59:11;;;;;;;12.05;7.85;;;10.70;99.90;;;-148.53;100.00;63986.66;5044729;28;20397;-81
2024/03/15 01:01:37;;;;;;;12.40;7.65;;;10.70;99.90;;;-148.53;100.00;63986.66;5019142;28;20037;-81
2024/03/15 01:04:04;;;;;;;12.45;8.52;;;10.80;99.90;;;-148.53;100.00;63986.66;5013025;28;20415;-81
2024/03/15 01:06:30;;;;;;;10.43;7.82;;;10.90;99.90;;;-148.53;100.00;63986.66;5032160;28;20136;-82
2024/03/15 01:08:56;;;;;;;11.68;8.05;;;11.00;99.90;;;-148.53;100.00;63986.66;5032028;28;20037;-82
2024/03/15 01:11:22;;;;;;;11.05;7.45;;;11.10;99.90;;;-148.53;100.00;63986.66;5029261;28;20033;-82
2024/03/15 01:13:54;;;;;;;10.25;7.53;;;11.20;99.90;;;-148.53;100.00;63986.66;5026933;28;20029;-81
2024/03/15 01:16:19;;;;;;;10.85;7.35;;;11.30;99.90;;;-148.53;100.00;63986.66;5018291;28;20041;-81
2024/03/15 01:18:45;;;;;;;9.50;6.90;;;11.50;99.90;;;-148.53;100.00;63986.66;5036822;28;20041;-80
2024/03/15 01:21:11;;;;;;;11.15;6.78;;;11.60;99.90;;;-148.53;100.00;63986.66;5023855;28;20105;-82
2024/03/15 01:23:36;;;;;;;12.10;7.30;;;11.80;99.90;;;-148.53;100.00;63986.66;5012153;28;20115;-80
2024/03/15 01:26:02;;;;;;;10.07;6.80;;;11.80;99.90;;;-148.53;100.00;63986.66;5025967;28;20029;-82
2024/03/15 01:28:29;;;;;;;10.50;6.93;;;11.90;99.90;;;-148.53;100.00;63986.66;5029129;28;20063;-82
2024/03/15 01:30:56;;;;;;;9.93;7.13;;;11.90;99.90;;;-148.53;100.00;63986.66;5022889;28;20104;-81
2024/03/15 01:33:21;;;;;;;10.30;6.88;;;11.80;99.90;;;-148.53;100.00;63986.66;5025475;28;20030;-82
2024/03/15 01:35:47;;;;;;;10.82;6.85;;;11.80;99.90;;;-148.53;100.00;63986.66;5019158;28;20342;-81
2024/03/15 01:38:13;;;;;;;12.18;6.97;;;11.70;99.90;;;-148.53;100.00;63986.66;5018467;28;20049;-80
2024/03/15 01:40:39;;;;;;;9.25;6.78;;;11.60;99.90;;;-148.53;100.00;63986.66;5018159;28;20037;-81
2024/03/15 01:43:04;;;;;;;8.88;6.72;;;11.60;99.90;;;-148.53;100.00;63986.66;5022268;28;20132;-81
2024/03/15 01:45:31;;;;;;;8.45;6.78;;;11.60;99.90;;;-148.53;100.00;63986.66;5031830;28;20034;-81
2024/03/15 01:47:58;;;;;;;10.88;6.97;;;11.60;99.90;;;-148.53;100.00;63986.66;5027638;28;20366;-80
2024/03/15 01:50:26;;;;;;;10.77;6.85;;;11.50;99.90;;;-148.53;100.00;63986.66;5027633;28;20066;-81
2024/03/15 01:52:54;;;;;;;9.63;7.43;;;11.50;99.90;;;-148.53;100.00;63986.66;5019356;28;20478;-82
2024/03/15 01:55:20;;;;;;;9.10;6.63;;;11.50;99.90;;;-148.53;100.00;63986.66;5036857;28;20042;-81
2024/03/15 01:57:46;;;;;;;10.38;6.95;;;11.50;99.90;;;-148.53;100.00;63986.66;5023107;28;20084;-82
2024/03/15 02:00:13;;;;;;;10.25;7.15;;;11.40;99.90;;;-148.53;100.00;63986.66;5022435;28;20036;-82
2024/03/15 02:02:43;;;;;;;10.85;7.18;;;11.50;99.90;;;-148.53;100.00;63986.66;5006689;28;20124;-82
2024/03/15 02:05:10;;;;;;;8.23;6.82;;;11.50;99.90;;;-148.53;100.00;63986.66;5030460;28;20466;-81
2024/03/15 02:07:37;;;;;;;11.20;6.90;;;11.40;99.90;;;-148.53;100.00;63986.66;5012536;28;20096;-83
2024/03/15 02:10:15;;;;;;;10.93;6.97;;;11.40;99.90;;;-148.53;100.00;63986.66;5016849;28;20029;-82
2024/03/15 02:12:41;;;;;;;12.17;7.23;;;11.40;99.90;;;-148.53;100.00;63986.66;5019826;28;20062;-82
2024/03/15 02:15:08;;;;;;;9.82;7.13;;;11.30;99.90;;;-148.53;100.00;63986.66;5021005;28;20040;-83
2024/03/15 02:17:37;;;;;;;10.25;6.43;;;11.30;99.90;;;-148.53;100.00;63986.66;5027627;28;20060;-84
2024/03/15 02:20:06;;;;;;;12.07;6.82;;;11.30;99.90;;;-148.53;100.00;63986.66;5018508;28;20044;-81
2024/03/15 02:22:35;;;;;;;10.52;7.30;;;11.30;99.90;;;-148.53;100.00;63986.66;5030272;28;20149;-82
2024/03/15 02:25:01;;;;;;;10.02;7.03;;;11.30;99.90;;;-148.53;100.00;63986.66;5029303;28;20493;-81
2024/03/15 02:27:28;;;;;;;10.07;6.90;;;11.30;99.90;;;-148.53;100.00;63986.66;5019995;28;20069;-83
2024/03/15 02:29:55;;;;;;;11.35;6.78;;;11.30;99.90;;;-148.53;100.00;63986.66;5018708;28;20033;-82
2024/03/15 02:32:23;;;;;;;9.15;6.53;;;11.30;99.90;;;-148.53;100.00;63986.66;5020489;28;20171;-82
2024/03/15 02:34:53;;;;;;;8.82;6.43;;;11.30;99.90;;;-148.53;100.00;63986.66;5019212;28;20477;-83
2024/03/15 02:37:19;;;;;;;9.13;6.65;;;11.30;99.90;;;-148.53;100.00;63986.66;5016466;28;20038;-84
2024/03/15 02:39:46;;;;;;;10.88;6.85;;;11.30;99.90;;;-148.53;100.00;63986.66;5031500;28;20559;-81
2024/03/15 02:42:11;;;;;;;11.05;7.65;;;11.30;99.90;;;-148.53;100.00;63986.66;5021618;28;20124;-80
2024/03/15 02:44:38;;;;;;;9.32;7.07;;;11.30;99.90;;;-148.53;100.00;63986.66;5031727;28;20118;-80
2024/03/15 02:47:04;;;;;;;11.52;8.20;;;11.30;99.90;;;-148.53;100.00;63986.66;5029711;28;20121;-80
2024/03/15 02:49:29;;;;;;;10.43;7.20;;;11.40;99.90;;;-148.53;100.00;63986.66;5028671;28;20040;-83
2024/03/15 02:51:56;;;;;;;11.65;7.60;;;11.40;99.90;;;-148.53;100.00;63986.66;5015177;28;20464;-83
2024/03/15 02:54:24;;;;;;;13.50;7.85;;;11.40;99.90;;;-148.53;100.00;63986.66;5015429;28;20416;-81
2024/03/15 02:56:50;;;;;;;10.40;7.07;;;11.40;99.90;;;-148.53;100.00;63986.66;5025115;28;20040;-83
2024/03/15 02:59:16;;;;;;;9.77;7.43;;;11.40;99.90;;;-148.53;100.00;63986.66;5021591;28;20083;-81
2024/03/15 03:01:46;;;;;;;10.73;7.43;;;11.40;99.90;;;-148.53;100.00;63986.66;5021336;28;20462;-81
2024/03/15 03:04:12;;;;;;;9.55;7.18;;;11.40;99.90;;;-148.53;100.00;63986.66;5021723;28;20045;-83
2024/03/15 03:06:38;;;;;;;10.25;7.82;;;11.40;99.90;;;-148.53;100.00;63986.66;5030220;28;20041;-83
2024/03/15 03:09:06;;;;;;;10.95;7.55;;;11.30;99.90;;;-148.53;100.00;63986.66;5027576;28;20389;-81
2024/03/15 03:11:32;;;;;;;;;;;11.30;99.90;;;-148.53;100.00;63986.66;5019899;28;20386;-79
2024/03/15 03:13:58;;;;;;;9.73;7.18;;;11.20;99.90;;;-148.53;100.00;63986.66;5018111;28;19932;-80
2024/03/15 03:16:24;;;;;;;11.73;7.88;;;11.00;99.90;;;-148.53;100.00;63986.66;5029919;28;20041;-80
2024/03/15 03:18:53;;;;;;;11.73;7.95;;;10.90;99.90;;;-148.53;100.00;63986.66;5019706;28;20108;-81
2024/03/15 03:21:19;;;;;;;10.45;8.02;;;10.80;99.90;;;-148.53;100.00;63986.66;5014451;28;20453;-81
2024/03/15 03:23:45;;;;;;;13.13;8.65;;;10.70;99.90;;;-148.53;100.00;63986.66;5015045;28;20035;-81
2024/03/15 03:26:10;;;;;;;12.98;8.80;;;10.60;99.90;;;-148.53;100.00;63986.66;5024995;28;20046;-82
2024/03/15 03:28:36;;;;;;;12.80;8.77;;;10.50;99.90;;;-148.53;100.00;63986.66;5036052;28;20041;-83
2024/03/15 03:31:02;;;;;;;12.02;8.00;;;10.50;99.90;;;-148.53;100.00;63986.66;5023384;28;20461;-80
2024/03/15 03:33:28;;;;;;;11.32;8.45;;;10.50;99.90;;;-148.53;100.00;63986.66;5013253;28;20441;-83
2024/03/15 03:35:56;;;;;;;13.38;9.07;;;10.50;99.90;;;-148.53;100.00;63986.66;5015794;28;20038;-81
2024/03/15 03:38:22;;;;;;;;;;;10.50;99.90;;;-148.53;100.00;63986.66;5031990;28;20069;-81
2024/03/15 03:40:48;;;;;;;14.05;8.93;;;10.50;99.90;;;-148.53;100.00;63986.66;5030500;28;19944;-80
2024/03/15 03:43:13;;;;;;;13.40;9.38;;;10.50;99.90;;;-148.53;100.00;63986.66;5014675;28;20589;-82
2024/03/15 03:45:42;;;;;;;14.15;9.35;;;10.60;99.90;;;-148.53;100.00;63986.66;5015179;28;20057;-84
2024/03/15 03:48:07;;;;;;;14.55;9.65;;;10.70;99.90;;;-148.53;100.00;63986.66;5018445;28;20193;-81
2024/03/15 03:50:33;;;;;;;13.73;9.35;;;10.70;99.90;;;-148.53;100.00;63986.66;5025565;28;20346;-83
2024/03/15 03:52:59;;;;;;;12.68;8.73;;;10.90;99.90;;;-148.53;100.00;63986.66;5034039;28;20034;-84
2024/03/15 03:55:25;;;;;;;12.77;8.63;;;11.00;99.90;;;-148.53;100.00;63986.66;5041072;28;20041;-84
2024/03/15 03:57:52;;;;;;;12.73;8.63;;;11.00;99.90;;;-148.53;100.00;63986.66;5025492;28;20105;-83
2024/03/15 04:00:18;;;;;;;12.70;9.07;;;11.00;99.90;;;-148.53;100.00;63986.66;5030562;28;20397;-83
2024/03/15 04:02:45;;;;;;;11.30;9.25;;;11.00;99.90;;;-148.53;100.00;63986.66;5036013;28;20048;-81
2024/03/15 04:05:13;;;;;;;13.63;8.73;;;11.00;99.90;;;-148.53;100.00;63986.66;5019795;28;20046;-82
2024/03/15 04:07:39;;;;;;;14.80;9.25;;;11.00;99.90;;;-148.53;100.00;63986.66;5021584;28;20045;-82
2024/03/15 04:10:07;;;;;;;12.57;8.38;;;11.00;99.90;;;-148.53;100.00;63986.66;5020846;28;20055;-82
2024/03/15 04:12:33;;;;;;;12.57;8.65;;;10.90;99.90;;;-148.53;100.00;63986.66;5021873;28;20038;-82
2024/03/15 04:15:00;;;;;;;13.15;8.75;;;10.80;99.90;;;-148.53;100.00;63986.66;5013906;28;20064;-83
2024/03/15 04:17:26;;;;;;;17.80;9.63;;;10.70;99.90;;;-148.53;100.00;63986.66;5014061;28;20446;-81
2024/03/15 04:19:57;;;;;;;14.50;9.40;;;10.80;99.90;;;-148.53;100.00;63986.66;5036268;28;20052;-82
2024/03/15 04:22:25;;;;;;;10.75;8.38;;;10.70;99.90;;;-148.53;100.00;63986.66;5022296;28;20045;-83
2024/03/15 04:24:52;;;;;;;12.10;9.05;;;10.70;99.90;;;-148.53;100.00;63986.66;5017447;28;20486;-81
2024/03/15 04:27:18;;;;;;;14.80;9.40;;;10.90;99.90;;;-148.53;100.00;63986.66;5017584;28;20043;-79
2024/03/15 04:29:44;;;;;;;12.55;8.80;;;10.90;99.90;;;-148.53;100.00;63986.66;5013726;28;20050;-80
2024/03/15 04:32:11;;;;;;;13.80;9.73;;;10.90;99.90;;;-148.53;100.00;63986.66;5016976;28;20077;-81
2024/03/15 04:34:40;;;;;;;12.55;9.32;;;10.90;99.90;;;-148.53;100.00;63986.66;5019292;28;20045;-79
2024/03/15 04:37:10;;;;;;;11.88;8.55;;;11.00;99.90;;;-148.53;100.00;63986.66;5026916;28;20038;-82
2024/03/15 04:39:36;;;;;;;14.32;8.93;;;11.00;99.90;;;-148.53;100.00;63986.66;5029569;28;22108;-81
2024/03/15 04:42:06;;;;;;;12.90;8.77;;;11.00;99.90;;;-148.53;100.00;63986.66;5016140;28;20030;-82
2024/03/15 04:44:36;;;;;;;14.23;8.88;;;11.00;99.90;;;-148.53;100.00;63986.66;5023495;28;20101;-81
2024/03/15 04:47:08;;;;;;;11.23;8.90;;;11.10;99.90;;;-148.53;100.00;63986.66;5017573;28;20084;-81
2024/03/15 04:49:34;;;;;;;13.57;8.65;;;11.10;99.90;;;-148.53;100.00;63986.66;5024442;28;20049;-81
2024/03/15 04:52:00;;;;;;;14.52;8.82;;;11.00;99.90;;;-148.53;100.00;63986.66;5013675;28;20034;-80
2024/03/15 04:54:26;;;;;;;13.07;8.43;;;11.10;99.90;;;-148.53;100.00;63986.66;5016203;28;20045;-82
2024/03/15 04:56:52;;;;;;;12.10;8.32;;;11.10;99.90;;;-148.53;100.00;63986.66;5017219;28;20477;-81
2024/03/15 04:59:19;;;;;;;13.73;8.77;;;11.00;99.90;;;-148.53;100.00;63986.66;5013837;28;20057;-81
2024/03/15 05:01:45;;;;;;;13.27;8.95;;;11.10;99.90;;;-148.53;100.00;63986.66;5022995;28;20040;-83
2024/03/15 05:04:11;;;;;;;14.35;8.55;;;11.10;99.90;;;-148.53;100.00;63986.66;5020312;28;20406;-82
2024/03/15 05:06:37;;;;;;;14.00;9.60;;;11.10;99.90;;;-148.53;100.00;63986.66;5020998;28;20060;-80
2024/03/15 05:09:08;;;;;;;12.63;8.68;;;11.20;99.90;;;-148.53;100.00;63986.66;5040227;28;20045;-83
2024/03/15 05:11:34;;;;;;;13.77;9.00;;;11.20;99.90;;;-148.53;100.00;63986.66;5015775;28;20488;-80
2024/03/15 05:14:00;;;;;;;11.65;8.32;;;11.30;99.90;;;-148.53;100.00;63986.66;5017734;28;20057;-81
2024/03/15 05:16:26;;;;;;;12.75;8.50;;;11.30;99.90;;;-148.53;100.00;63986.66;5020932;28;20133;-83
2024/03/15 05:18:51;;;;;;;12.65;8.80;;;11.30;99.90;;;-148.53;100.00;63986.66;5020084;28;20474;-82
2024/03/15 05:21:17;;;;;;;11.95;7.78;;;11.40;99.90;;;-148.53;100.00;63986.66;5020120;28;20095;-83
2024/03/15 05:23:43;;;;;;;11.57;8.50;;;11.40;99.90;;;-148.53;100.00;63986.66;5013260;28;20050;-80
2024/03/15 05:26:08;;;;;;;11.38;7.90;;;11.60;99.90;;;-148.53;100.00;63986.66;5013419;28;20033;-80
2024/03/15 05:28:35;;;;;;;12.95;8.32;;;11.60;99.90;;;-148.53;100.00;63986.66;5030297;28;20485;-78
2024/03/15 05:31:04;;;;;;;11.77;8.00;;;11.60;99.90;;;-148.53;100.00;63986.66;5035315;28;20036;-82
2024/03/15 05:33:30;;;;;;;12.45;7.65;;;11.60;99.90;;;-148.53;100.00;63986.66;5040270;28;20052;-86
2024/03/15 05:35:56;;;;;;;14.38;8.32;;;11.60;99.90;;;-148.53;100.00;63986.66;5044991;28;20032;-81
2024/03/15 05:38:23;;;;;;;17.33;9.27;;;11.60;99.90;;;-148.53;100.00;63986.66;5035346;28;20039;-82
2024/03/15 05:40:51;;;;;;;13.55;7.97;;;11.60;99.90;;;-148.53;100.00;63986.66;5017765;28;20124;-81
2024/03/15 05:43:17;;;;;;;18.95;8.95;;;11.60;99.90;;;-148.53;100.00;63986.66;5022859;28;20091;-85
2024/03/15 05:45:43;;;;;;;13.85;8.80;;;11.60;99.90;;;-148.53;100.00;63986.66;5033499;28;20041;-81
2024/03/15 05:48:08;;;;;;;16.02;8.52;;;11.60;99.90;;;-148.53;100.00;63986.66;5028698;28;20063;-78
2024/03/15 05:50:34;;;;;;;13.27;8.10;;;11.60;99.90;;;-148.53;100.00;63986.66;5028765;28;20077;-85
2024/03/15 05:53:00;;;;;;;14.32;8.30;;;11.70;99.90;;;-148.53;100.00;63986.66;5011685;28;20095;-82
2024/03/15 05:55:31;;;;;;;14.20;8.40;;;11.70;99.90;;;-148.53;100.00;63986.66;5025985;28;20045;-83
2024/03/15 05:57:57;;;;;;;15.07;8.05;;;11.70;99.90;;;-148.53;100.00;63986.66;5043592;28;20029;-79
2024/03/15 06:00:23;;;;;;;18.50;9.63;;;11.70;99.90;;;-148.53;100.00;63986.66;5023607;28;20045;-81
2024/03/15 06:02:50;;;;;;;16.27;9.40;;;11.70;99.90;;;-148.53;100.00;63986.66;5010425;28;20132;-81
2024/03/15 06:05:18;;;;;;;14.73;9.27;;;11.80;99.90;;;-148.53;100.00;63986.66;5035669;28;20046;-81
2024/03/15 06:07:45;;;;;;;16.08;9.25;;;11.80;99.90;;;-148.53;100.00;63986.66;5017381;28;20049;-81
2024/03/15 06:10:11;;;;;;;12.73;8.00;;;11.80;99.90;;;-148.53;100.00;63986.66;5016088;28;20045;-81
2024/03/15 06:12:36;;;;;;;12.90;8.45;;;11.90;99.90;;;-148.53;100.00;63986.66;5019262;28;20123;-81
2024/03/15 06:15:03;;;;;;;11.32;8.07;;;11.90;99.90;;;-148.53;100.00;63986.66;5019042;28;20116;-83
2024/03/15 06:17:31;;;;;;;11.63;7.85;;;11.90;99.90;;;-148.53;100.00;63986.66;5028324;28;20056;-85
2024/03/15 06:19:57;;;;;;;12.25;7.72;;;11.90;99.90;;;-148.53;100.00;63986.66;5027632;28;20098;-82
2024/03/15 06:22:24;;;;;;;24.73;9.30;;;12.00;99.90;;;-148.53;100.00;63986.66;5042990;28;20049;-83
2024/03/15 06:24:52;;;;;;;18.83;9.38;;;12.10;99.90;;;-148.53;100.00;63986.66;5030728;28;20124;-85
2024/03/15 06:27:20;;;;;;;13.52;8.25;;;;;;;-148.53;100.00;63986.66;5022654;28;20063;-83
2024/03/15 06:29:52;;;;;;;12.88;7.93;;;12.40;99.90;;;-148.53;100.00;63986.66;5016383;28;20362;-85
2024/03/15 06:32:20;;;;;;;14.18;8.10;;;12.60;99.90;;;-148.53;100.00;63986.66;5031194;28;20041;-84
2024/03/15 06:34:46;;;;;;;14.40;8.73;;;12.70;99.90;;;-148.53;100.00;63986.66;5031089;28;20060;-77
2024/03/15 06:37:16;;;;;;;12.25;7.38;;;12.80;99.90;;;-148.53;100.00;63986.66;5021813;28;20092;-78
2024/03/15 06:42:24;;;;;;;18.23;9.05;;;;;;;-148.53;100.00;63986.66;5024813;28;20041;-81
2024/03/15 06:45:01;;;;;;;13.20;8.20;;;12.90;99.90;;;-148.53;100.00;63986.66;5027282;28;20103;-81
2024/03/15 06:47:28;;;;;;;14.80;8.27;;;13.00;99.90;;;-148.53;100.00;63986.66;5015836;28;20100;-84
2024/03/15 06:52:38;;;;;;;15.93;7.45;;;13.00;99.90;;;-148.53;100.00;63986.66;5024231;28;20084;-80
2024/03/15 06:55:10;;;;;;;15.93;9.30;;;13.10;99.90;;;-148.53;100.00;63986.66;5027779;28;20413;-79
2024/03/15 06:57:38;;;;;;;13.45;7.85;;;13.10;99.90;;;-148.53;100.00;63986.66;5026393;28;20509;-81
2024/03/15 07:00:09;;;;;;;11.27;7.28;;;13.00;99.90;;;-148.53;100.00;63986.66;5020639;28;20045;-80
2024/03/15 07:02:36;;;;;;;12.18;7.70;;;13.00;99.90;;;-148.53;100.00;63986.66;5037830;28;20042;-79
2024/03/15 07:05:03;;;;;;;14.57;8.40;;;12.90;99.90;;;-148.53;100.00;63986.66;5035401;28;20041;-78
2024/03/15 07:07:31;;;;;;;16.08;8.18;;;13.00;99.90;;;-148.53;100.00;63986.66;5026820;28;20045;-81
2024/03/15 07:09:56;;;;;;;11.48;7.43;;;13.00;99.90;;;-148.53;100.00;63986.66;5032852;28;20041;-81
2024/03/15 07:12:22;;;;;;;11.35;7.75;;;13.10;99.90;;;-148.53;100.00;63986.66;5021101;28;20689;-81
2024/03/15 07:14:49;;;;;;;13.20;7.57;;;13.10;99.90;;;-148.53;100.00;63986.66;5032858;28;21420;-80
2024/03/15 07:17:15;;;;;;;15.10;7.35;;;13.10;99.90;;;-148.53;100.00;63986.66;5025067;28;20042;-76
2024/03/15 07:19:41;;;;;;;14.38;7.63;;;13.10;99.90;;;-148.53;100.00;63986.66;5024600;28;20087;-78
2024/03/15 07:22:06;;;;;;;10.98;7.35;;;13.20;99.90;;;-148.53;100.00;63986.66;5032041;28;20038;-81
2024/03/15 07:24:33;;;;;;;12.55;7.15;;;13.30;99.90;;;-148.53;100.00;63986.66;5047596;28;20041;-84
2024/03/15 07:26:59;;;;;;;11.85;7.60;;;;;;;-148.53;100.00;63986.66;5022907;28;20034;-83
2024/03/15 07:29:25;;;;;;;12.40;7.80;;;;;;;-148.53;100.00;63986.66;5021310;28;20041;-79
2024/03/15 07:31:54;;;;;;;11.05;7.88;;;;;;;-148.53;100.00;63986.66;5030785;28;20457;-81
2024/03/15 07:34:20;;;;;;;20.55;8.85;;;;;;;-148.53;100.00;63986.66;5028968;28;20041;-82
2024/03/15 07:36:46;;;;;;;12.93;8.10;;;;;;;-148.53;100.00;63986.66;5032498;28;20056;-82
2024/03/15 07:39:14;;;;;;;11.02;6.63;;;;;;;-148.53;100.00;63986.66;5026751;28;20037;-78
2024/03/15 07:41:40;;;;;;;12.27;7.63;;;13.30;99.90;;;-148.53;100.00;63986.66;5025441;28;20052;-77
2024/03/15 07:44:06;;;;;;;10.15;6.90;;;13.80;99.90;;;-148.53;100.00;63986.66;5018110;28;20038;-79
2024/03/15 07:46:32;;;;;;;10.55;6.90;;;13.90;99.90;;;-148.53;100.00;63986.66;5024442;28;20033;-80
2024/03/15 07:48:59;;;;;;;14.20;7.38;;;;;;;-148.53;100.00;63986.66;5020994;28;20041;-78
2024/03/15 07:51:25;;;;;;;14.00;7.17;;;;;;;-148.53;100.00;63986.66;5030022;28;20124;-80
2024/03/15 07:53:52;;;;;;;12.32;7.60;;;;;;;-148.53;100.00;63986.66;5029736;28;20541;-81
2024/03/15 07:56:19;;;;;;;12.50;6.70;;;;;;;-148.53;100.00;63986.66;5022722;28;20124;-82
2024/03/15 07:58:45;;;;;;;14.07;7.57;;;;;;;-148.53;100.00;63986.66;5020731;28;20109;-80
2024/03/15 08:01:13;;;;;;;16.88;7.38;;;;;;;-148.53;100.00;63986.66;5019059;28;20038;-79
2024/03/15 08:03:41;;;;;;;12.38;6.97;;;;;;;-148.53;100.00;63986.66;5014687;28;20072;-79
2024/03/15 08:06:07;;;;;;;;;;;14.00;99.90;;;-148.53;100.00;63986.66;5014665;28;20082;-79
2024/03/15 08:08:33;;;;;;;10.45;6.35;;;;;;;-148.53;100.00;63986.66;5018969;28;19960;-79
2024/03/15 08:11:00;;;;;;;11.70;6.75;;;;;;;-148.53;100.00;63986.66;5014968;28;20065;-78
2024/03/15 08:13:27;;;;;;;11.40;6.60;;;;;;;-148.53;100.00;63986.66;5019475;28;20030;-78
2024/03/15 08:16:18;;;;;;;10.50;6.60;;;;;;;-148.53;100.00;63986.66;5020585;28;20092;-80
2024/03/15 08:18:45;;;;;;;9.85;6.82;;;;;;;-148.53;100.00;63986.66;5030029;28;20044;-80
2024/03/15 08:21:11;;;;;;;11.85;6.85;;;;;;;-148.53;100.00;63986.66;5030904;28;20037;-81
2024/03/15 08:23:37;;;;;;;8.45;6.10;;;;;;;-148.53;100.00;63986.66;5023098;28;20034;-80
2024/03/15 08:26:04;;;;;;;9.45;6.15;;;;;;;-148.53;100.00;63986.66;5016660;28;20041;-79
2024/03/15 08:28:31;;;;;;;9.60;5.93;;;;;;;-148.53;100.00;63986.66;5015220;28;20049;-78
2024/03/15 08:30:57;;;;;;;13.68;6.53;;;;;;;-148.53;100.00;63986.66;5035428;28;20042;-83
2024/03/15 08:33:23;;;;;;;9.50;6.43;;;;;;;-148.53;100.00;63986.66;5035274;28;20083;-80
2024/03/15 08:35:49;;;;;;;10.38;6.25;;;;;;;-148.53;100.00;63986.66;5026162;28;20113;-80
2024/03/15 08:38:15;;;;;;;14.20;6.88;;;;;;;-148.53;100.00;63986.66;5029735;28;20493;-81
2024/03/15 08:40:41;;;;;;;9.65;6.18;;;;;;;-148.53;100.00;63986.66;5017856;28;20091;-81
2024/03/15 08:43:08;;;;;;;9.70;6.18;;;;;;;-148.53;100.00;63986.66;5018284;28;20037;-82
2024/03/15 08:45:34;;;;;;;9.60;6.07;;;;;;;-148.53;100.00;63986.66;5021618;28;20500;-79
2024/03/15 08:48:01;;;;;;;9.43;5.72;;;;;;;-148.53;100.00;63986.66;5030822;28;20037;-85
2024/03/15 08:50:32;;;;;;;10.32;6.35;;;;;;;-148.53;100.00;63986.66;5029082;28;20034;-85
2024/03/15 08:53:07;;;;;;;9.57;6.05;;;;;;;-148.53;100.00;63986.66;5018631;28;20087;-83
2024/03/15 08:55:33;;;;;;;10.15;6.60;;;;;;;-148.53;100.00;63986.66;5016413;28;20025;-83
2024/03/15 08:57:59;;;;;;;9.57;6.28;;;;;;;-148.53;100.00;63986.66;5013851;28;20038;-82
2024/03/15 09:00:26;;;;;;;10.02;6.30;;;;;;;-148.53;100.00;63986.66;5035662;28;20057;-81
2024/03/15 09:02:54;;;;;;;12.90;6.72;;;;;;;-148.53;100.00;63986.66;5025788;28;20033;-82
2024/03/15 09:05:21;;;;;;;10.23;6.28;;;;;;;-148.53;100.00;63986.66;5017656;28;20042;-82
2024/03/15 09:07:47;;;;;;;10.68;6.60;;;;;;;-148.53;100.00;63986.66;5032039;28;20048;-81
2024/03/15 09:10:16;;;;;;;10.38;6.10;;;;;;;-148.53;100.00;63986.66;5027715;28;20128;-83
2024/03/15 09:12:43;;;;;;;9.32;6.22;;;;;;;-148.53;100.00;63986.66;5015719;28;20188;-81
2024/03/15 09:15:12;;;;;;;10.48;5.43;;;;;;;-148.53;100.00;63986.66;5028437;28;20040;-80
2024/03/15 09:17:38;;;;;;;11.77;5.72;;;;;;;-148.53;100.00;63986.66;5022658;28;20038;-81
2024/03/15 09:20:12;;;;;;;9.05;5.22;;;;;;;-148.53;100.00;63986.66;5018404;28;20152;-80
2024/03/15 09:22:40;;;;;;;8.68;5.40;;;;;;;-148.53;100.00;63986.66;5017431;28;20119;-81
2024/03/15 09:25:06;;;;;;;8.38;5.20;;;;;;;-148.53;100.00;63986.66;5022158;28;20033;-81
2024/03/15 09:27:36;;;;;;;9.05;5.10;;;;;;;-148.53;100.00;63986.66;5028213;28;20117;-81
2024/03/15 09:30:16;;;;;;;9.63;5.72;;;;;;;-148.53;100.00;63986.66;5012940;28;20402;-80
2024/03/15 09:32:46;;;;;;;8.30;5.20;;;;;;;-148.53;100.00;63986.66;5011811;28;20504;-78
2024/03/15 09:35:15;;;;;;;13.20;6.13;;;;;;;-148.53;100.00;63986.66;5017304;28;20049;-82
2024/03/15 09:37:51;;;;;;;11.02;6.30;;;;;;;-148.53;100.00;63986.66;5034825;28;20040;-82
2024/03/15 09:40:25;;;;;;;12.05;6.18;;;;;;;-148.53;100.00;63986.66;5022892;28;20079;-79
2024/03/15 09:42:53;;;;;;;10.70;6.13;;;;;;;-148.53;100.00;63986.66;5020326;28;20079;-81
2024/03/15 09:45:26;;;;;;;8.88;5.88;;;;;;;-148.53;100.00;63986.66;5027757;28;20409;-82
2024/03/15 09:47:53;;;;;;;10.27;5.85;;;;;;;-148.53;100.00;63986.66;5022221;28;20026;-80
2024/03/15 09:50:21;;;;;;;10.95;6.18;;;;;;;-148.53;100.00;63986.66;5016644;28;20497;-79
2024/03/15 09:52:51;;;;;;;9.07;6.35;;;;;;;-148.53;100.00;63986.66;5032320;28;20481;-82
2024/03/15 09:55:19;;;;;;;11.43;6.75;;;;;;;-148.53;100.00;63986.66;5035664;28;20048;-88
2024/03/15 09:57:46;;;;;;;;;;;;;;;-148.53;100.00;63986.66;5018837;28;20189;-83
2024/03/15 10:00:21;;;;;;;9.18;6.07;;;;;;;-148.53;100.00;63986.66;5016977;28;19917;-86
2024/03/15 10:02:48;;;;;;;9.27;6.30;;;;;;;-148.53;100.00;63986.66;5024181;28;20042;-80
2024/03/15 10:05:15;;;;;;;11.00;6.35;;;;;;;-148.53;100.00;63986.66;5040110;28;20113;-83
2024/03/15 10:07:41;;;;;;;9.43;6.28;;;;;;;-148.53;100.00;63986.66;5028756;28;20404;-83
2024/03/15 10:10:12;;;;;;;9.48;5.93;;;;;;;-148.53;100.00;63986.66;5012887;28;20509;-82
2024/03/15 10:12:41;;;;;;;8.57;5.95;;;;;;;-148.53;100.00;63986.66;5013355;28;20041;-82
2024/03/15 10:15:25;;;;;;;10.05;5.80;;;;;;;-148.53;100.00;63986.66;5011358;28;20061;-83
2024/03/15 10:17:56;;;;;;;9.45;5.93;;;;;;;-148.53;100.00;63986.66;5024948;28;20026;-85